Time;durP1;ratioP1;P1;durP2;ratioP2;P2;SDS_P1;SDS_P2;PMS_P1;PMS_P2;Temp;Humidity;BMP_temperature;BMP_pressure;BME280_temperature;BME280_humidity;BME280_pressure;Samples;Min_cycle;Max_cycle;Signal;HPM_P1;HPM_P2
2020/12/10 00:00:43;;;;;;;4.95;2.80;;;;;;;5.57;69.37;96352.33;1705301;84;21113;-75
2020/12/10 00:03:10;;;;;;;4.45;2.95;;;;;;;5.52;70.85;96336.12;1705497;84;21546;-77
2020/12/10 00:05:38;;;;;;;4.15;2.90;;;;;;;5.53;70.39;96337.80;1705714;84;21579;-77
2020/12/10 00:08:05;;;;;;;4.28;3.27;;;;;;;5.54;71.41;96330.80;1705291;84;21184;-75
2020/12/10 00:10:33;;;;;;;3.60;2.52;;;;;;;5.53;71.12;96328.64;1705826;84;21184;-76
2020/12/10 00:13:00;;;;;;;4.37;2.98;;;;;;;5.53;69.84;96332.56;1710522;84;21586;-75
2020/12/10 00:15:30;;;;;;;4.33;3.00;;;;;;;5.53;70.05;96340.89;1677791;83;21178;-76
2020/12/10 00:17:57;;;;;;;4.35;2.98;;;;;;;5.54;70.22;96350.41;1671069;84;21135;-77
2020/12/10 00:20:25;;;;;;;4.40;3.02;;;;;;;5.57;70.00;96358.01;1667670;86;21316;-77
2020/12/10 00:22:52;;;;;;;4.92;3.15;;;;;;;5.59;70.10;96357.44;1667580;86;21172;-76
2020/12/10 00:25:19;;;;;;;4.17;3.05;;;;;;;5.62;69.73;96361.14;1683055;84;21585;-75
2020/12/10 00:27:47;;;;;;;3.85;3.00;;;;;;;5.62;70.55;96361.97;1710090;83;21117;-78
2020/12/10 00:30:14;;;;;;;3.58;2.85;;;;;;;5.63;70.16;96367.56;1710642;84;21188;-76
2020/12/10 00:32:41;;;;;;;3.30;2.10;;;;;;;5.66;69.80;96374.83;1710541;84;21586;-76
2020/12/10 00:35:09;;;;;;;3.45;2.92;;;;;;;5.65;69.71;96366.16;1683986;84;21139;-78
2020/12/10 00:37:37;;;;;;;6.05;3.17;;;;;;;5.66;70.02;96368.30;1667764;86;21760;-76
2020/12/10 00:40:08;;;;;;;3.90;2.83;;;;;;;5.68;69.96;96363.30;1670952;84;21170;-76
2020/12/10 00:42:36;;;;;;;4.90;2.90;;;;;;;5.70;69.90;96356.67;1668190;84;21199;-75
2020/12/10 00:45:04;;;;;;;4.53;3.10;;;;;;;5.76;70.10;96354.42;1679144;84;21148;-74
2020/12/10 00:47:35;;;;;;;3.75;2.80;;;;;;;5.81;70.42;96347.55;1709791;84;21148;-77
2020/12/10 00:50:04;;;;;;;3.65;2.50;;;;;;;5.85;70.36;96344.23;1710344;84;21175;-76
2020/12/10 00:52:34;;;;;;;5.12;3.47;;;;;;;5.84;70.70;96322.49;1721643;83;21222;-77
2020/12/10 00:55:04;;;;;;;6.37;3.25;;;;;;;5.85;70.57;96339.00;1722765;83;21700;-75
2020/12/10 00:57:34;;;;;;;4.17;2.98;;;;;;;5.91;70.85;96351.66;1724032;83;21140;-78
2020/12/10 01:00:07;;;;;;;5.90;3.40;;;;;;;5.96;70.96;96352.14;1724333;83;21280;-77
2020/12/10 01:02:37;;;;;;;5.67;3.25;;;;;;;6.02;71.16;96353.50;1724058;83;21168;-79
2020/12/10 01:05:05;;;;;;;5.65;3.90;;;;;;;6.07;71.41;96347.48;1724204;83;21309;-75
2020/12/10 01:07:33;;;;;;;4.90;3.42;;;;;;;6.12;71.47;96337.48;1724088;83;21736;-79
2020/12/10 01:10:04;;;;;;;5.70;3.95;;;;;;;6.15;70.81;96340.34;1721982;83;21112;-75
2020/12/10 01:12:33;;;;;;;3.90;3.33;;;;;;;6.16;70.78;96332.40;1720385;83;21731;-80
2020/12/10 01:15:00;;;;;;;5.85;4.33;;;;;;;6.15;70.81;96321.57;1723880;83;21160;-78
2020/12/10 01:17:28;;;;;;;4.33;3.40;;;;;;;6.16;70.95;96302.30;1723752;83;21585;-77
2020/12/10 01:19:56;;;;;;;5.47;3.50;;;;;;;6.16;70.76;96301.45;1703385;83;21184;-76
2020/12/10 01:22:23;;;;;;;6.03;4.28;;;;;;;6.13;70.77;96296.44;1699187;83;21322;-77
2020/12/10 01:24:50;;;;;;;7.83;4.83;;;;;;;6.12;70.71;96295.63;1711088;83;21703;-79
2020/12/10 01:27:24;;;;;;;6.05;4.00;;;;;;;6.07;70.89;96293.35;1715336;83;21155;-76
2020/12/10 01:29:52;;;;;;;4.60;3.52;;;;;;;6.02;70.83;96286.80;1695012;85;21175;-79
2020/12/10 01:32:25;;;;;;;5.97;3.70;;;;;;;5.93;70.97;96297.45;1706976;83;21534;-76
2020/12/10 01:34:53;;;;;;;6.40;4.25;;;;;;;5.91;70.75;96294.93;1718515;83;21617;-76
2020/12/10 01:37:23;;;;;;;6.53;4.35;;;;;;;5.87;71.11;96298.73;1669457;85;21187;-77
2020/12/10 01:39:51;;;;;;;6.72;3.70;;;;;;;5.83;71.13;96302.52;1695039;85;21592;-77
2020/12/10 01:42:18;;;;;;;7.42;4.50;;;;;;;5.81;71.13;96304.41;1708056;83;21684;-74
2020/12/10 01:44:46;;;;;;;8.03;5.30;;;;;;;5.77;71.28;96301.18;1723655;83;21191;-75
2020/12/10 01:47:13;;;;;;;5.95;4.33;;;;;;;5.71;71.51;96302.10;1724144;83;21140;-76
2020/12/10 01:49:41;;;;;;;6.72;4.53;;;;;;;5.67;71.47;96300.19;1723982;83;21282;-75
2020/12/10 01:52:08;;;;;;;7.42;5.22;;;;;;;5.67;71.46;96298.88;1703135;83;21596;-75
2020/12/10 01:54:36;;;;;;;6.35;4.62;;;;;;;5.66;71.76;96301.62;1667408;86;21164;-75
2020/12/10 01:57:04;;;;;;;7.95;4.65;;;;;;;5.66;71.88;96297.69;1667673;86;21175;-76
2020/12/10 01:59:31;;;;;;;7.37;4.58;;;;;;;5.66;72.24;96297.69;1667368;86;21128;-76
2020/12/10 02:01:58;;;;;;;7.22;4.95;;;;;;;5.65;72.18;96301.25;1667663;84;21199;-74
2020/12/10 02:04:36;;;;;;;7.03;4.80;;;;;;;5.62;72.33;96303.14;1667363;85;21163;-76
2020/12/10 02:07:04;;;;;;;6.55;4.53;;;;;;;5.62;72.49;96291.86;1667696;86;21160;-75
2020/12/10 02:09:32;;;;;;;6.70;5.05;;;;;;;5.60;72.36;96271.06;1698458;84;21132;-77
2020/12/10 02:12:00;;;;;;;8.53;4.25;;;;;;;5.59;72.41;96268.09;1710062;83;21570;-77
2020/12/10 02:14:37;;;;;;;7.08;4.37;;;;;;;5.61;72.60;96274.50;1710519;83;21136;-77
2020/12/10 02:17:07;;;;;;;6.75;4.20;;;;;;;5.62;72.68;96273.55;1709381;84;21578;-78
2020/12/10 02:19:35;;;;;;;5.65;4.42;;;;;;;5.65;72.68;96273.80;1667340;86;21179;-75
2020/12/10 02:22:03;;;;;;;5.30;3.35;;;;;;;5.73;73.16;96265.77;1667730;86;21305;-78
2020/12/10 02:24:31;;;;;;;5.17;3.92;;;;;;;5.74;72.83;96265.27;1663795;84;21646;-77
2020/12/10 02:27:00;;;;;;;5.15;3.72;;;;;;;5.77;72.85;96262.44;1678457;84;21375;-74
2020/12/10 02:29:27;;;;;;;4.60;3.08;;;;;;;5.85;72.84;96260.55;1645135;87;21235;-76
2020/12/10 02:31:55;;;;;;;6.70;4.05;;;;;;;5.91;72.66;96261.41;1676455;85;21171;-78
2020/12/10 02:34:22;;;;;;;5.53;3.72;;;;;;;5.98;72.65;96265.72;1676623;85;21155;-78
2020/12/10 02:36:50;;;;;;;4.72;3.65;;;;;;;6.02;72.60;96256.25;1690288;84;21164;-81
2020/12/10 02:39:17;;;;;;;5.95;3.42;;;;;;;6.05;72.32;96242.91;1710565;84;21152;-78
2020/12/10 02:41:47;;;;;;;6.58;4.28;;;;;;;6.07;72.20;96240.20;1710578;84;21188;-76
2020/12/10 02:44:14;;;;;;;6.53;4.72;;;;;;;6.08;72.44;96244.45;1710661;84;21554;-76
2020/12/10 02:46:42;;;;;;;8.03;4.40;;;;;;;6.06;72.46;96243.77;1694121;84;21143;-79
2020/12/10 02:49:09;;;;;;;6.50;3.90;;;;;;;6.06;72.47;96241.15;1667915;86;21147;-77
2020/12/10 02:51:38;;;;;;;8.63;4.80;;;;;;;6.05;72.20;96241.61;1667671;84;21305;-77
2020/12/10 02:54:06;;;;;;;6.97;4.47;;;;;;;6.05;72.22;96249.45;1667759;86;21167;-77
2020/12/10 02:56:34;;;;;;;6.95;4.83;;;;;;;6.06;72.32;96251.13;1668840;84;21151;-77
2020/12/10 02:59:01;;;;;;;7.30;4.55;;;;;;;6.05;72.22;96236.37;1673977;84;21190;-80
2020/12/10 03:01:28;;;;;;;7.03;4.62;;;;;;;6.02;72.04;96224.85;1673093;84;21166;-76
2020/12/10 03:03:57;;;;;;;6.37;4.15;;;;;;;5.97;71.92;96223.02;1667735;86;21341;-79
2020/12/10 03:06:25;;;;;;;6.95;4.67;;;;;;;5.90;71.82;96236.20;1672784;84;21541;-75
2020/12/10 03:08:52;;;;;;;6.12;3.90;;;;;;;5.84;71.79;96234.06;1667733;86;21306;-78
2020/12/10 03:11:20;;;;;;;8.00;4.42;;;;;;;5.80;71.84;96230.81;1668181;84;21163;-77
2020/12/10 03:13:47;;;;;;;5.97;3.90;;;;;;;5.74;71.88;96236.05;1667980;83;21135;-77
2020/12/10 03:16:16;;;;;;;5.62;4.15;;;;;;;5.66;71.94;96229.71;1674143;84;21325;-74
2020/12/10 03:18:44;;;;;;;5.17;2.58;;;;;;;5.61;71.85;96219.11;1646084;87;21172;-77
2020/12/10 03:21:11;;;;;;;5.05;3.00;;;;;;;5.57;71.71;96213.77;1710848;83;21156;-79
2020/12/10 03:23:38;;;;;;;4.65;3.00;;;;;;;5.50;72.17;96215.17;1707523;84;21145;-76
2020/12/10 03:26:06;;;;;;;4.33;3.00;;;;;;;5.45;72.75;96210.28;1711041;84;21157;-75
2020/12/10 03:28:33;;;;;;;4.78;3.22;;;;;;;5.43;72.32;96205.64;1710691;84;21149;-77
2020/12/10 03:31:00;;;;;;;4.62;3.27;;;;;;;5.40;72.61;96208.95;1705135;84;21129;-75
2020/12/10 03:33:28;;;;;;;4.83;2.80;;;;;;;5.40;72.50;96200.63;1668086;86;21136;-76
2020/12/10 03:35:56;;;;;;;4.47;3.20;;;;;;;5.38;72.86;96195.16;1668591;84;21616;-75
2020/12/10 03:38:24;;;;;;;4.03;2.90;;;;;;;5.34;72.80;96187.17;1667681;84;21608;-75
2020/12/10 03:40:51;;;;;;;5.28;3.02;;;;;;;5.31;72.58;96186.47;1695581;84;21148;-75
2020/12/10 03:43:18;;;;;;;4.22;3.10;;;;;;;5.28;72.53;96188.00;1710504;84;21546;-75
2020/12/10 03:45:46;;;;;;;4.78;3.27;;;;;;;5.25;72.68;96189.52;1709856;84;21149;-76
2020/12/10 03:48:13;;;;;;;4.62;3.08;;;;;;;5.26;72.62;96197.72;1670061;84;21599;-78
2020/12/10 03:50:40;;;;;;;5.00;2.87;;;;;;;5.29;72.77;96201.42;1667509;86;21625;-78
2020/12/10 03:53:08;;;;;;;3.80;2.45;;;;;;;5.34;72.76;96204.16;1667613;84;21768;-75
2020/12/10 03:55:35;;;;;;;3.87;2.83;;;;;;;5.39;72.69;96204.67;1667526;86;21333;-76
2020/12/10 03:58:02;;;;;;;3.60;2.65;;;;;;;5.40;72.59;96199.80;1700006;84;21156;-75
2020/12/10 04:00:30;;;;;;;5.20;3.30;;;;;;;5.41;72.52;96192.33;1710532;84;21156;-76
2020/12/10 04:02:58;;;;;;;4.17;2.87;;;;;;;5.42;72.50;96186.98;1710587;84;21539;-77
2020/12/10 04:05:26;;;;;;;4.62;3.08;;;;;;;5.41;72.62;96184.48;1697752;84;21125;-76
2020/12/10 04:07:54;;;;;;;4.40;2.98;;;;;;;5.36;72.46;96182.22;1710287;83;21618;-74
2020/12/10 04:10:22;;;;;;;3.80;2.98;;;;;;;5.26;72.92;96168.98;1710521;83;21141;-78
2020/12/10 04:12:50;;;;;;;4.47;3.42;;;;;;;5.22;72.76;96180.62;1710459;84;21105;-77
2020/12/10 04:15:17;;;;;;;4.28;3.20;;;;;;;5.16;72.79;96174.06;1709890;83;21570;-75
2020/12/10 04:17:44;;;;;;;3.98;3.00;;;;;;;5.14;72.36;96172.02;1710478;84;21180;-76
2020/12/10 04:20:12;;;;;;;4.08;2.80;;;;;;;5.09;72.69;96171.54;1710406;84;21590;-76
2020/12/10 04:22:40;;;;;;;4.22;3.10;;;;;;;5.07;72.65;96176.03;1710361;84;21140;-75
2020/12/10 04:25:07;;;;;;;4.35;2.80;;;;;;;5.00;72.93;96165.19;1688443;84;21159;-75
2020/12/10 04:27:34;;;;;;;2.95;2.25;;;;;;;4.97;73.00;96171.94;1667559;86;21325;-75
2020/12/10 04:30:03;;;;;;;3.40;2.47;;;;;;;4.98;73.24;96172.78;1667547;86;21167;-75
2020/12/10 04:32:30;;;;;;;3.47;2.58;;;;;;;4.96;73.27;96167.69;1667861;86;21168;-75
2020/12/10 04:34:58;;;;;;;4.67;2.83;;;;;;;4.95;73.23;96176.46;1670512;84;21144;-77
2020/12/10 04:37:25;;;;;;;3.37;2.52;;;;;;;4.96;73.29;96182.05;1686945;84;21168;-75
2020/12/10 04:39:53;;;;;;;6.15;3.50;;;;;;;4.99;73.69;96178.38;1668274;84;21580;-78
2020/12/10 04:42:21;;;;;;;9.75;3.22;;;;;;;5.03;73.62;96178.98;1667968;86;21155;-78
2020/12/10 04:44:48;;;;;;;9.85;3.58;;;;;;;5.06;73.84;96180.08;1659190;84;21608;-76
2020/12/10 04:47:19;;;;;;;6.78;4.60;;;;;;;5.06;73.56;96172.23;1704359;84;21156;-76
2020/12/10 04:49:47;;;;;;;8.20;4.17;;;;;;;5.03;73.54;96165.92;1710384;84;21546;-77
2020/12/10 04:52:15;;;;;;;5.12;3.40;;;;;;;5.02;73.36;96174.70;1712557;83;21128;-76
2020/12/10 04:54:42;;;;;;;7.10;5.12;;;;;;;4.90;73.67;96157.66;1694168;83;21576;-82
2020/12/10 04:57:11;;;;;;;9.45;4.85;;;;;;;4.95;73.70;96175.16;1724019;83;21696;-77
2020/12/10 04:59:39;;;;;;;7.50;5.22;;;;;;;4.95;73.78;96175.16;1697419;83;21155;-77
2020/12/10 05:02:13;;;;;;;6.65;4.67;;;;;;;4.94;74.35;96194.38;1721272;83;21713;-76
2020/12/10 05:04:40;;;;;;;5.03;2.58;;;;;;;4.94;73.72;96193.07;1633129;87;22620;-75
2020/12/10 05:07:08;;;;;;;4.37;2.90;;;;;;;4.95;73.15;96196.50;1593633;90;21209;-76
2020/12/10 05:09:36;;;;;;;5.62;2.80;;;;;;;4.89;73.94;96204.79;1618080;87;21213;-77
2020/12/10 05:12:19;;;;;;;7.58;3.75;;;;;;;4.80;74.54;96209.73;1613439;88;21658;-75
2020/12/10 05:14:46;;;;;;;9.53;4.95;;;;;;;4.72;74.52;96215.12;1636875;88;21569;-75
2020/12/10 05:17:16;;;;;;;7.78;4.33;;;;;;;4.64;74.64;96206.55;1635018;88;21184;-76
2020/12/10 05:19:45;;;;;;;10.82;3.87;;;;;;;4.57;75.58;96201.37;1632253;88;21351;-75
2020/12/10 05:22:13;;;;;;;7.95;4.75;;;;;;;4.52;75.25;96211.67;1648394;85;21585;-78
2020/12/10 05:24:40;;;;;;;6.60;3.87;;;;;;;4.47;75.89;96205.11;1702020;83;21155;-75
2020/12/10 05:27:22;;;;;;;9.70;4.72;;;;;;;4.46;75.88;96213.87;1708552;82;21191;-75
2020/12/10 05:29:52;;;;;;;7.97;4.70;;;;;;;4.43;75.58;96217.99;1709644;83;21160;-75
2020/12/10 05:32:37;;;;;;;7.65;4.17;;;;;;;4.51;75.38;96228.28;1714795;83;21826;-75
2020/12/10 05:35:23;;;;;;;10.78;5.50;;;;;;;4.61;75.28;96228.45;1714506;83;21217;-74
2020/12/10 05:37:53;;;;;;;10.82;6.25;;;;;;;4.67;75.37;96221.97;1715134;83;21199;-75
2020/12/10 05:40:22;;;;;;;9.30;6.15;;;;;;;4.79;75.27;96218.95;1697304;83;21160;-74
2020/12/10 05:42:51;;;;;;;10.78;6.55;;;;;;;4.88;75.14;96227.92;1724056;83;21142;-75
2020/12/10 05:45:22;;;;;;;9.20;5.03;;;;;;;4.98;75.13;96216.70;1711579;83;21148;-74
2020/12/10 05:47:58;;;;;;;9.28;4.75;;;;;;;5.13;75.04;96231.75;1720925;83;21148;-74
2020/12/10 05:50:29;;;;;;;10.98;5.12;;;;;;;5.22;74.76;96220.27;1722389;83;21573;-74
2020/12/10 05:53:13;;;;;;;10.03;5.25;;;;;;;5.34;74.95;96209.38;1702137;83;21266;-75
2020/12/10 05:55:48;;;;;;;10.45;6.67;;;;;;;5.46;74.90;96220.25;1703734;83;21692;-74
2020/12/10 05:58:20;;;;;;;9.35;4.95;;;;;;;5.60;74.63;96219.23;1717661;83;21172;-75
2020/12/10 06:00:47;;;;;;;7.42;4.55;;;;;;;5.60;74.11;96221.39;1703446;83;21168;-74
2020/12/10 06:03:16;;;;;;;8.85;5.08;;;;;;;5.59;73.88;96220.17;1715451;83;21172;-74
2020/12/10 06:05:43;;;;;;;6.22;4.20;;;;;;;5.52;73.68;96232.86;1693255;83;21148;-74
2020/12/10 06:08:10;;;;;;;8.83;4.62;;;;;;;5.50;73.33;96230.00;1658530;86;21165;-74
2020/12/10 06:10:43;;;;;;;7.28;4.65;;;;;;;5.42;73.43;96227.98;1705685;83;21686;-75
2020/12/10 06:13:11;;;;;;;11.53;5.15;;;;;;;5.37;73.38;96233.55;1702137;83;21155;-80
2020/12/10 06:15:39;;;;;;;7.80;4.15;;;;;;;5.27;73.49;96228.62;1690880;83;21624;-76
2020/12/10 06:18:15;;;;;;;6.30;4.33;;;;;;;5.20;73.47;96234.75;1720054;83;21292;-75
2020/12/10 06:20:45;;;;;;;9.60;4.35;;;;;;;5.16;73.38;96229.38;1707191;83;21167;-75
2020/12/10 06:23:30;;;;;;;6.97;4.33;;;;;;;5.09;73.43;96213.79;1723498;83;21096;-75
2020/12/10 06:26:25;;;;;;;6.83;4.15;;;;;;;5.02;73.39;96215.19;1714810;82;21151;-74
2020/12/10 06:29:19;;;;;;;9.35;4.72;;;;;;;4.95;73.67;96229.16;1704561;83;21589;-74
2020/12/10 06:32:16;;;;;;;8.78;5.12;;;;;;;4.96;74.31;96226.45;1718891;83;21181;-74
2020/12/10 06:34:54;;;;;;;11.70;5.45;;;;;;;4.98;74.49;96232.86;1669743;85;21572;-71
2020/12/10 06:37:28;;;;;;;13.85;6.45;;;;;;;5.05;74.46;96231.47;1717249;83;21208;-74
2020/12/10 06:40:03;;;;;;;13.05;7.22;;;;;;;5.17;74.56;96241.50;1715538;83;21179;-74
2020/12/10 06:42:46;;;;;;;11.18;6.45;;;;;;;5.31;74.51;96247.03;1723830;83;21301;-73
2020/12/10 06:45:33;;;;;;;8.95;5.90;;;;;;;5.44;74.35;96246.97;1707914;83;21329;-73
2020/12/10 06:48:07;;;;;;;12.15;5.78;;;;;;;5.52;74.23;96242.01;1711867;83;21139;-73
2020/12/10 06:50:38;;;;;;;8.45;5.80;;;;;;;5.65;73.97;96251.57;1676187;85;21179;-74
2020/12/10 06:53:21;;;;;;;11.10;5.90;;;;;;;5.74;74.13;96235.20;1718932;83;21745;-74
2020/12/10 06:56:00;;;;;;;13.80;6.40;;;;;;;5.78;73.79;96231.42;1701534;83;21585;-74
2020/12/10 06:58:46;;;;;;;6.03;4.55;;;;;;;5.86;73.74;96237.37;1722133;83;21266;-74
2020/12/10 07:01:35;;;;;;;12.18;6.62;;;;;;;5.88;72.78;96238.95;1724378;83;21128;-73
2020/12/10 07:07:21;;;;;;;9.50;5.90;;;;;;;5.96;73.05;96235.73;1722424;83;21285;-76
2020/12/10 07:10:01;;;;;;;10.23;6.45;;;;;;;5.94;72.96;96221.47;1707306;83;21685;-76
2020/12/10 07:12:33;;;;;;;10.05;6.28;;;;;;;5.81;72.78;96201.09;1712313;83;21126;-75
2020/12/10 07:15:26;;;;;;;16.40;6.15;;;;;;;5.89;72.64;96225.38;1713697;83;21607;-75
2020/12/10 07:17:54;;;;;;;8.23;5.20;;;;;;;5.87;72.66;96233.34;1714818;83;21125;-74
2020/12/10 07:20:23;;;;;;;8.38;4.22;;;;;;;5.85;72.54;96239.16;1723889;83;21132;-73
2020/12/10 07:22:52;;;;;;;9.40;5.33;;;;;;;5.90;72.66;96241.43;1707065;83;21203;-73
2020/12/10 07:25:20;;;;;;;8.13;3.83;;;;;;;5.90;72.66;96241.43;1713644;83;21195;-72
2020/12/10 07:27:49;;;;;;;10.28;4.15;;;;;;;5.96;72.58;96254.53;1705259;83;21319;-73
2020/12/10 07:30:19;;;;;;;7.92;4.10;;;;;;;5.97;72.70;96253.58;1714358;83;21291;-74
2020/12/10 07:32:52;;;;;;;9.10;4.53;;;;;;;6.00;72.68;96257.29;1683770;85;21589;-74
2020/12/10 07:35:35;;;;;;;7.10;3.62;;;;;;;6.02;72.50;96251.47;1716859;83;21711;-74
2020/12/10 07:38:11;;;;;;;10.13;5.12;;;;;;;5.92;72.44;96252.63;1715958;83;21147;-73
2020/12/10 07:40:39;;;;;;;8.28;5.12;;;;;;;5.81;72.65;96249.48;1718034;83;21105;-73
2020/12/10 07:43:09;;;;;;;6.90;4.22;;;;;;;5.83;72.63;96258.54;1721683;83;21116;-72
2020/12/10 07:45:38;;;;;;;10.78;5.25;;;;;;;5.81;72.48;96259.13;1681265;85;21616;-72
2020/12/10 07:48:06;;;;;;;6.25;2.85;;;;;;;5.79;72.79;96266.61;1713609;83;21684;-73
2020/12/10 07:50:36;;;;;;;7.45;2.90;;;;;;;5.88;72.66;96268.17;1716959;83;21278;-74
2020/12/10 07:53:07;;;;;;;7.05;4.30;;;;;;;5.82;72.80;96272.56;1700556;83;21718;-76
2020/12/10 07:55:43;;;;;;;12.35;4.30;;;;;;;5.87;72.90;96280.43;1677274;84;21167;-74
2020/12/10 07:58:16;;;;;;;8.07;4.70;;;;;;;5.98;73.01;96270.47;1701236;83;21245;-74
2020/12/10 08:00:48;;;;;;;10.32;6.37;;;;;;;6.05;72.94;96261.23;1679510;84;21191;-74
2020/12/10 08:03:29;;;;;;;10.45;4.30;;;;;;;6.19;72.91;96261.49;1669582;84;21208;-75
2020/12/10 08:06:09;;;;;;;6.80;3.25;;;;;;;6.36;72.96;96258.06;1701289;82;21097;-73
2020/12/10 08:08:46;;;;;;;6.67;3.65;;;;;;;6.56;72.46;96263.91;1696549;84;21182;-73
2020/12/10 08:11:19;;;;;;;9.35;4.55;;;;;;;6.70;71.50;96266.77;1705932;84;21137;-73
2020/12/10 08:13:58;;;;;;;9.10;4.20;;;;;;;6.77;71.84;96278.91;1698196;84;21187;-74
2020/12/10 08:16:41;;;;;;;7.72;3.72;;;;;;;6.82;71.39;96272.00;1700026;82;21172;-75
2020/12/10 08:19:20;;;;;;;5.17;3.65;;;;;;;7.15;71.31;96263.73;1695427;84;21195;-73
2020/12/10 08:21:51;;;;;;;8.75;4.20;;;;;;;7.15;71.31;96263.73;1691627;84;22258;-73
2020/12/10 08:24:42;;;;;;;6.15;4.15;;;;;;;7.18;70.79;96251.23;1696688;84;21134;-74
2020/12/10 08:27:15;;;;;;;7.03;4.08;;;;;;;7.30;70.18;96255.12;1703968;84;21156;-72
2020/12/10 08:30:01;;;;;;;8.85;4.42;;;;;;;7.34;70.22;96273.59;1694725;84;21645;-73
2020/12/10 08:32:29;;;;;;;11.30;4.17;;;;;;;7.50;69.79;96267.95;1695760;84;21588;-74
2020/12/10 08:35:05;;;;;;;12.95;4.05;;;;;;;7.63;69.25;96257.29;1671331;85;21121;-72
2020/12/10 08:37:38;;;;;;;5.70;2.35;;;;;;;7.64;68.26;96255.02;1701462;82;21573;-73
2020/12/10 08:40:08;;;;;;;4.83;2.98;;;;;;;7.64;68.26;96255.02;1692437;82;21400;-74
2020/12/10 08:42:36;;;;;;;7.75;4.03;;;;;;;7.57;67.91;96253.83;1691560;82;21586;-74
2020/12/10 08:45:05;;;;;;;8.18;3.47;;;;;;;7.56;67.64;96246.95;1696529;84;21917;-75
2020/12/10 08:47:35;;;;;;;10.05;4.05;;;;;;;7.56;67.64;96246.95;1696282;84;21188;-73
2020/12/10 08:53:06;;;;;;;5.78;3.87;;;;;;;7.81;68.10;96249.68;1750122;79;24974;-73
2020/12/10 08:55:48;;;;;;;7.95;3.52;;;;;;;7.76;67.54;96247.44;1718468;83;21136;-73
2020/12/10 08:58:20;;;;;;;7.67;4.17;;;;;;;7.76;67.54;96247.44;1721477;83;21143;-72
2020/12/10 09:00:50;;;;;;;10.78;4.40;;;;;;;7.69;67.23;96246.28;1692384;83;21201;-73
2020/12/10 09:03:18;;;;;;;10.55;4.83;;;;;;;7.68;67.92;96262.98;1712461;83;21151;-73
2020/12/10 09:05:46;;;;;;;6.53;4.53;;;;;;;7.76;67.96;96265.80;1720014;83;21780;-73
2020/12/10 09:08:13;;;;;;;7.65;4.20;;;;;;;7.89;67.76;96260.86;1700307;83;21151;-73
2020/12/10 09:10:42;;;;;;;9.48;3.75;;;;;;;7.90;67.46;96255.97;1708933;83;21305;-74
2020/12/10 09:13:10;;;;;;;6.30;3.33;;;;;;;7.94;67.30;96245.55;1702224;83;21192;-73
2020/12/10 09:15:41;;;;;;;8.60;5.62;;;;;;;7.96;67.28;96250.20;1699851;83;21297;-73
2020/12/10 09:18:11;;;;;;;12.15;4.90;;;;;;;7.98;67.66;96254.84;1702301;83;21557;-74
2020/12/10 09:20:40;;;;;;;8.03;4.30;;;;;;;8.13;67.82;96236.50;1707400;83;21284;-74
2020/12/10 09:23:09;;;;;;;6.17;2.90;;;;;;;8.27;67.82;96218.76;1696572;83;21139;-72
2020/12/10 09:25:41;;;;;;;8.95;3.72;;;;;;;8.38;66.22;96206.87;1694663;85;21151;-74
2020/12/10 09:28:28;;;;;;;8.90;4.97;;;;;;;8.34;65.91;96208.08;1862067;75;24843;-75
2020/12/10 09:30:57;;;;;;;4.50;2.80;;;;;;;8.34;66.51;96213.33;1756427;80;21127;-77
2020/12/10 09:33:25;;;;;;;7.55;3.45;;;;;;;8.45;66.31;96207.14;1758671;81;21610;-75
2020/12/10 09:35:52;;;;;;;7.92;3.92;;;;;;;8.52;66.11;96193.05;1776178;80;21120;-74
2020/12/10 09:38:19;;;;;;;5.70;3.10;;;;;;;8.58;65.26;96202.55;1830695;78;21509;-74
2020/12/10 09:40:47;;;;;;;5.72;2.92;;;;;;;8.58;65.26;96202.55;1812824;77;21595;-75
2020/12/10 09:43:14;;;;;;;4.70;3.00;;;;;;;8.49;65.12;96206.46;1799288;78;21177;-74
2020/12/10 09:45:54;;;;;;;6.25;3.12;;;;;;;8.43;65.42;96209.91;1799494;78;21146;-74
2020/12/10 09:48:14;;;;;;;6.05;3.72;;;;;;;8.21;65.79;96181.22;1791447;79;21148;-74
2020/12/10 09:50:44;;;;;;;5.95;3.25;;;;;;;8.37;66.09;96199.09;1762085;80;21149;-74
2020/12/10 09:53:20;;;;;;;4.03;2.70;;;;;;;8.40;65.53;96196.22;1786296;80;21124;-74
2020/12/10 09:58:24;;;;;;;8.28;2.62;;;;;;;8.46;66.05;96200.12;1778965;80;21166;-74
2020/12/10 10:00:52;;;;;;;1.45;1.10;;;;;;;8.45;64.94;96207.14;1815696;78;21167;-74
2020/12/10 10:03:21;;;;;;;1.87;1.00;;;;;;;8.46;63.98;96219.81;1801842;78;21154;-73
2020/12/10 10:05:50;;;;;;;5.50;1.50;;;;;;;8.52;64.57;96210.97;1765540;80;21114;-74
2020/12/10 10:08:21;;;;;;;3.42;1.62;;;;;;;8.59;63.80;96212.55;1815956;78;21116;-75
2020/12/10 10:10:47;;;;;;;1.80;1.17;;;;;;;8.68;64.18;96219.64;1829727;78;21120;-78
2020/12/10 10:13:14;;;;;;;2.52;1.30;;;;;;;8.78;63.75;96214.90;1829854;78;21136;-76
2020/12/10 10:15:42;;;;;;;1.72;1.00;;;;;;;8.78;63.58;96215.75;1818366;78;21140;-76
2020/12/10 10:18:10;;;;;;;1.95;0.90;;;;;;;8.83;63.23;96220.60;1816844;79;21156;-77
2020/12/10 10:20:38;;;;;;;1.85;1.15;;;;;;;8.86;63.03;96215.09;1813197;78;21149;-75
2020/12/10 10:23:05;;;;;;;1.72;1.10;;;;;;;8.95;63.75;96223.48;1797270;78;21179;-77
2020/12/10 10:25:33;;;;;;;2.85;1.32;;;;;;;9.04;63.97;96209.53;1809646;78;21548;-77
2020/12/10 10:28:03;;;;;;;1.47;1.10;;;;;;;9.11;63.35;96215.05;1825703;78;21163;-75
2020/12/10 10:30:31;;;;;;;2.70;1.40;;;;;;;9.19;63.40;96216.52;1805823;78;21183;-76
2020/12/10 10:33:00;;;;;;;3.37;1.52;;;;;;;9.24;61.77;96213.98;1807348;79;21147;-76
2020/12/10 10:35:28;;;;;;;4.75;1.72;;;;;;;9.27;62.04;96211.91;1814864;78;21152;-74
2020/12/10 10:37:56;;;;;;;4.28;1.30;;;;;;;9.35;62.75;96203.34;1823782;78;21513;-76
2020/12/10 10:40:25;;;;;;;2.50;1.80;;;;;;;9.42;61.82;96207.08;1802468;78;21273;-78
2020/12/10 10:42:53;;;;;;;3.12;1.70;;;;;;;9.33;60.91;96201.32;1810281;78;21140;-75
2020/12/10 10:45:21;;;;;;;2.80;1.40;;;;;;;9.44;61.85;96197.72;1808482;78;21154;-74
2020/12/10 10:47:51;;;;;;;3.05;1.67;;;;;;;9.53;62.16;96195.10;1816456;78;21093;-74
2020/12/10 10:50:18;;;;;;;4.28;1.82;;;;;;;9.65;62.90;96192.34;1806614;78;21537;-74
2020/12/10 10:52:46;;;;;;;2.45;1.47;;;;;;;9.75;62.92;96189.19;1829066;78;21173;-75
2020/12/10 10:55:14;;;;;;;2.80;1.72;;;;;;;9.84;62.20;96185.70;1829106;78;21568;-74
2020/12/10 10:57:41;;;;;;;3.05;1.30;;;;;;;9.90;61.07;96183.00;1823778;78;21159;-75
2020/12/10 11:00:08;;;;;;;3.40;2.10;;;;;;;9.96;61.75;96184.23;1822123;78;21581;-74
2020/12/10 11:02:36;;;;;;;2.75;1.60;;;;;;;10.00;60.89;96179.86;1817883;78;21132;-75
2020/12/10 11:05:03;;;;;;;2.87;1.60;;;;;;;10.02;61.19;96172.31;1829405;78;21112;-74
2020/12/10 11:07:31;;;;;;;4.25;1.67;;;;;;;10.11;60.72;96173.63;1829352;78;21580;-75
2020/12/10 11:09:58;;;;;;;3.70;1.80;;;;;;;10.15;60.21;96168.40;1824321;78;21274;-74
2020/12/10 11:12:26;;;;;;;3.25;2.02;;;;;;;10.20;60.84;96176.37;1811110;78;21124;-74
2020/12/10 11:14:54;;;;;;;3.33;2.00;;;;;;;10.22;60.24;96171.77;1829448;78;21151;-74
2020/12/10 11:17:21;;;;;;;3.08;1.82;;;;;;;10.20;60.96;96169.28;1807491;78;21565;-74
2020/12/10 11:19:49;;;;;;;3.05;1.90;;;;;;;10.19;59.10;96168.13;1803425;78;21128;-74
2020/12/10 11:22:17;;;;;;;3.33;1.50;;;;;;;10.20;60.54;96162.70;1813709;78;21135;-74
2020/12/10 11:24:45;;;;;;;4.22;1.70;;;;;;;10.12;59.80;96151.56;1829326;78;21289;-74
2020/12/10 11:27:12;;;;;;;6.37;2.05;;;;;;;10.02;60.21;96145.52;1829090;78;21195;-75
2020/12/10 11:29:40;;;;;;;3.27;1.52;;;;;;;9.95;60.09;96147.04;1814262;78;21560;-75
2020/12/10 11:32:07;;;;;;;3.17;1.80;;;;;;;9.95;60.46;96147.04;1795097;78;21188;-74
2020/12/10 11:34:35;;;;;;;2.77;1.72;;;;;;;9.85;60.67;96138.68;1822020;78;21123;-74
2020/12/10 11:37:02;;;;;;;3.62;2.00;;;;;;;9.85;61.27;96142.63;1816943;78;21151;-74
2020/12/10 11:39:29;;;;;;;5.17;2.20;;;;;;;9.79;59.96;96146.34;1797502;78;21154;-75
2020/12/10 11:41:57;;;;;;;4.95;3.00;;;;;;;9.87;60.49;96142.97;1797029;79;21096;-73
2020/12/10 11:44:24;;;;;;;2.42;1.75;;;;;;;9.89;60.44;96143.67;1789677;80;21229;-73
2020/12/10 11:46:52;;;;;;;1.98;1.55;;;;;;;9.84;59.90;96147.55;1790703;80;21195;-75
2020/12/10 11:49:19;;;;;;;9.70;4.00;;;;;;;9.87;60.57;96143.82;1803703;78;21600;-75
2020/12/10 11:51:47;;;;;;;3.52;1.67;;;;;;;9.94;60.81;96142.74;1828321;78;21132;-75
2020/12/10 11:54:14;;;;;;;6.03;1.62;;;;;;;9.93;60.65;96143.24;1831363;78;21568;-74
2020/12/10 11:56:42;;;;;;;3.55;1.72;;;;;;;9.94;61.15;96138.33;1832064;78;21100;-81
2020/12/10 11:59:09;;;;;;;2.67;1.98;;;;;;;9.98;61.22;96142.31;1832502;78;21282;-85
2020/12/10 12:01:40;;;;;;;4.45;1.80;;;;;;;10.00;60.84;96139.06;1811064;78;21609;-86
2020/12/10 12:04:08;;;;;;;2.75;1.25;;;;;;;10.04;60.82;96138.78;1806757;78;21152;-82